Time;durP1;ratioP1;P1;durP2;ratioP2;P2;SDS_P1;SDS_P2;PMS_P1;PMS_P2;Temp;Humidity;BMP_temperature;BMP_pressure;BME280_temperature;BME280_humidity;BME280_pressure;Samples;Min_cycle;Max_cycle;Signal;HPM_P1;HPM_P2
2022/10/18 00:02:31;;;;;;;25.27;12.85;;;12.70;99.90;;;;;;9195407;19;19921;-72
2022/10/18 00:05:36;;;;;;;27.42;12.98;;;13.10;99.90;;;;;;9198734;19;19999;-72
2022/10/18 00:08:42;;;;;;;21.77;12.45;;;13.00;99.90;;;;;;9190048;19;20260;-73
2022/10/18 00:11:46;;;;;;;26.13;13.50;;;12.70;99.90;;;;;;9197211;19;20348;-73
2022/10/18 00:14:51;;;;;;;28.20;13.07;;;12.50;99.90;;;;;;9199816;19;20439;-72
2022/10/18 00:17:55;;;;;;;20.55;12.55;;;12.50;99.90;;;;;;9192213;19;19947;-72
2022/10/18 00:21:00;;;;;;;22.45;12.02;;;12.70;99.90;;;;;;9195673;19;19927;-72
2022/10/18 00:24:07;;;;;;;21.67;12.07;;;12.80;99.90;;;;;;9199854;19;19935;-73
2022/10/18 00:27:11;;;;;;;24.17;12.68;;;12.20;99.90;;;;;;9187998;19;19919;-73
2022/10/18 00:30:15;;;;;;;26.10;12.45;;;12.30;99.90;;;;;;9199326;19;19925;-73
2022/10/18 00:33:19;;;;;;;20.88;11.90;;;12.00;99.90;;;;;;9194462;19;20267;-72
2022/10/18 00:36:24;;;;;;;20.75;10.70;;;12.10;99.90;;;;;;9195394;19;19923;-73
2022/10/18 00:39:30;;;;;;;22.55;10.93;;;12.10;99.90;;;;;;9194281;19;19923;-72
2022/10/18 00:42:36;;;;;;;24.05;12.05;;;12.10;99.90;;;;;;9193451;19;19922;-72
2022/10/18 00:45:40;;;;;;;21.25;11.40;;;12.40;99.90;;;;;;9188017;19;19923;-72
2022/10/18 00:48:44;;;;;;;19.88;10.50;;;13.00;99.90;;;;;;9196416;19;20340;-72
2022/10/18 00:51:51;;;;;;;23.35;11.52;;;12.10;99.90;;;;;;9196507;19;19927;-72
2022/10/18 00:54:59;;;;;;;26.92;9.80;;;12.30;99.90;;;;;;9193076;19;19952;-73
2022/10/18 00:58:04;;;;;;;24.88;9.90;;;12.70;99.90;;;;;;9192391;19;19930;-73
2022/10/18 01:01:07;;;;;;;17.27;10.52;;;12.20;99.90;;;;;;9188522;19;19918;-73
2022/10/18 01:04:11;;;;;;;17.80;10.52;;;12.60;99.90;;;;;;9196535;19;19944;-73
2022/10/18 01:07:27;;;;;;;18.77;9.68;;;12.30;99.90;;;;;;9198076;19;19922;-73
2022/10/18 01:10:42;;;;;;;20.98;10.25;;;12.30;99.90;;;;;;9192902;19;19955;-72
2022/10/18 01:14:08;;;;;;;19.48;10.15;;;12.40;99.90;;;;;;9192489;19;19925;-73
2022/10/18 01:17:18;;;;;;;18.17;10.25;;;12.10;99.90;;;;;;9186785;19;19910;-72
2022/10/18 01:21:00;;;;;;;21.48;10.18;;;12.40;99.90;;;;;;9193650;19;19973;-72
2022/10/18 01:24:44;;;;;;;17.15;10.15;;;12.70;99.90;;;;;;9192013;19;20331;-73
2022/10/18 01:27:58;;;;;;;14.98;9.50;;;12.80;99.90;;;;;;9195949;19;19982;-73
2022/10/18 01:31:10;;;;;;;16.92;9.77;;;12.00;99.90;;;;;;9195181;19;19926;-73
2022/10/18 01:34:18;;;;;;;17.27;10.80;;;12.30;99.90;;;;;;9192231;19;19921;-72
2022/10/18 01:37:31;;;;;;;15.20;9.35;;;11.90;99.90;;;;;;9187359;19;19923;-72
2022/10/18 01:40:36;;;;;;;15.50;9.35;;;12.80;99.90;;;;;;9197145;19;20341;-72
2022/10/18 01:43:42;;;;;;;19.02;10.05;;;11.80;99.90;;;;;;9194059;19;20268;-72
2022/10/18 01:46:49;;;;;;;18.23;8.70;;;12.00;99.90;;;;;;9196928;19;19926;-72
2022/10/18 01:50:00;;;;;;;15.85;9.40;;;12.70;99.90;;;;;;9193766;19;19925;-73
2022/10/18 01:53:04;;;;;;;17.10;10.60;;;12.20;99.90;;;;;;9188060;19;19922;-72
2022/10/18 01:56:25;;;;;;;20.30;9.88;;;12.00;99.90;;;;;;9194102;19;19923;-73
2022/10/18 01:59:41;;;;;;;20.00;9.45;;;12.00;99.90;;;;;;9194492;19;19914;-72
2022/10/18 02:02:52;;;;;;;17.20;9.15;;;11.80;99.90;;;;;;9196564;19;19919;-72
2022/10/18 02:06:01;;;;;;;14.55;8.35;;;12.20;99.90;;;;;;9195779;19;19957;-73
2022/10/18 02:09:11;;;;;;;15.10;8.20;;;12.20;99.90;;;;;;9190486;19;19921;-72
2022/10/18 02:12:16;;;;;;;18.30;9.10;;;11.60;99.90;;;;;;9195658;19;19918;-72
2022/10/18 02:15:24;;;;;;;17.40;9.90;;;12.00;99.90;;;;;;9190489;19;19940;-72
2022/10/18 02:18:36;;;;;;;17.58;8.77;;;12.00;99.90;;;;;;9187441;19;19974;-72
2022/10/18 02:21:42;;;;;;;20.63;9.15;;;12.30;99.90;;;;;;9190178;19;19922;-73
2022/10/18 02:24:50;;;;;;;19.08;9.07;;;11.80;99.90;;;;;;9189422;19;19922;-72
2022/10/18 02:27:55;;;;;;;20.08;9.23;;;12.50;99.90;;;;;;9195113;19;19930;-72
2022/10/18 02:31:08;;;;;;;21.95;10.20;;;12.20;99.90;;;;;;9190741;19;19956;-72
2022/10/18 02:34:18;;;;;;;;;;;12.10;99.90;;;;;;9192007;19;19947;-72
2022/10/18 02:37:22;;;;;;;18.30;9.05;;;12.20;99.90;;;;;;9188646;19;19919;-73
2022/10/18 02:40:27;;;;;;;20.20;9.35;;;11.60;99.90;;;;;;9190038;19;19915;-72
2022/10/18 02:43:31;;;;;;;18.63;8.90;;;11.40;99.90;;;;;;9197666;19;19929;-72
2022/10/18 02:46:36;;;;;;;17.60;8.63;;;11.60;99.90;;;;;;9197800;19;19926;-72
2022/10/18 02:49:42;;;;;;;17.60;9.82;;;12.60;99.90;;;;;;9197530;19;19919;-72
2022/10/18 02:52:46;;;;;;;15.63;9.45;;;12.20;99.90;;;;;;9197573;19;19925;-72
2022/10/18 02:55:50;;;;;;;23.75;8.93;;;12.50;99.90;;;;;;9199678;19;19926;-72
2022/10/18 02:58:54;;;;;;;15.38;8.95;;;11.70;99.90;;;;;;9201974;19;19942;-72
2022/10/18 03:01:58;;;;;;;15.65;9.35;;;12.30;99.90;;;;;;9201748;19;19926;-72
2022/10/18 03:05:05;;;;;;;17.05;8.80;;;12.20;99.90;;;;;;9202601;19;19929;-72
2022/10/18 03:08:09;;;;;;;21.75;9.73;;;11.70;99.90;;;;;;9197291;19;19957;-72
2022/10/18 03:11:13;;;;;;;21.02;10.82;;;12.60;99.90;;;;;;9200422;19;19929;-72
2022/10/18 03:14:17;;;;;;;18.33;9.15;;;11.70;99.90;;;;;;9197173;19;19911;-72
2022/10/18 03:17:21;;;;;;;17.13;9.07;;;11.70;99.90;;;;;;9199356;19;19922;-72
2022/10/18 03:20:27;;;;;;;32.78;9.85;;;12.10;99.90;;;;;;9201247;19;19930;-71
2022/10/18 03:23:32;;;;;;;23.70;8.50;;;12.00;99.90;;;;;;9195273;19;20390;-72
2022/10/18 03:26:36;;;;;;;40.22;10.23;;;;;;;;;;9199739;19;19915;-72
2022/10/18 03:29:40;;;;;;;34.47;9.25;;;11.90;99.90;;;;;;9205370;19;19926;-71
2022/10/18 03:32:44;;;;;;;49.67;10.82;;;12.10;99.90;;;;;;9207356;19;19957;-72
2022/10/18 03:35:50;;;;;;;72.85;10.40;;;11.20;99.90;;;;;;9203116;19;19910;-72
2022/10/18 03:38:54;;;;;;;61.20;9.75;;;12.10;99.90;;;;;;9193926;19;20005;-72
2022/10/18 03:41:58;;;;;;;60.17;10.57;;;12.50;99.90;;;;;;9196404;19;19915;-72
2022/10/18 03:45:02;;;;;;;51.58;9.15;;;11.40;99.90;;;;;;9197540;19;19930;-72
2022/10/18 03:48:07;;;;;;;44.10;7.95;;;11.80;99.90;;;;;;9197782;19;19918;-72
2022/10/18 03:51:14;;;;;;;46.40;9.23;;;12.00;99.90;;;;;;9196330;19;19919;-72
2022/10/18 03:54:18;;;;;;;50.55;9.57;;;;;;;;;;9193394;19;19923;-72
2022/10/18 03:57:22;;;;;;;30.83;7.22;;;11.90;99.90;;;;;;9198496;19;20416;-72
2022/10/18 04:00:26;;;;;;;45.30;9.00;;;11.90;99.90;;;;;;9200681;19;19922;-72
2022/10/18 04:03:31;;;;;;;46.03;8.85;;;11.80;99.90;;;;;;9197153;19;19920;-71
2022/10/18 04:06:37;;;;;;;71.22;10.50;;;11.90;99.90;;;;;;9199152;19;19922;-72
2022/10/18 04:09:41;;;;;;;94.65;10.43;;;;;;;;;;9195136;19;20017;-72
2022/10/18 04:12:45;;;;;;;46.85;7.80;;;11.50;99.90;;;;;;9198791;19;19927;-72
2022/10/18 04:15:49;;;;;;;81.95;9.95;;;12.20;99.90;;;;;;9197457;19;19926;-72
2022/10/18 04:18:53;;;;;;;68.47;8.57;;;11.80;99.90;;;;;;9195861;19;19919;-72
2022/10/18 04:21:59;;;;;;;56.42;8.32;;;11.90;99.90;;;;;;9195264;19;19922;-72
2022/10/18 04:25:03;;;;;;;43.33;7.80;;;11.50;99.90;;;;;;9198759;19;20022;-72
2022/10/18 04:28:07;;;;;;;57.30;8.80;;;12.30;99.90;;;;;;9195995;19;19940;-72
2022/10/18 04:31:11;;;;;;;40.10;8.68;;;11.80;99.90;;;;;;9197802;19;19922;-72
2022/10/18 04:34:15;;;;;;;68.85;9.05;;;12.10;99.90;;;;;;9196089;19;19929;-72
2022/10/18 04:37:21;;;;;;;43.90;7.85;;;11.30;99.90;;;;;;9196354;19;19919;-72
2022/10/18 04:40:25;;;;;;;68.97;9.02;;;11.40;99.90;;;;;;9193890;19;20381;-72
2022/10/18 04:43:29;;;;;;;52.58;8.80;;;11.40;99.90;;;;;;9199397;19;19922;-72
2022/10/18 04:46:33;;;;;;;78.93;9.30;;;11.50;99.90;;;;;;9197537;19;19964;-72
2022/10/18 04:49:37;;;;;;;50.35;8.00;;;11.90;99.90;;;;;;9197624;19;20284;-72
2022/10/18 04:52:44;;;;;;;60.17;7.88;;;11.90;99.90;;;;;;9196823;19;20256;-72
2022/10/18 04:55:49;;;;;;;23.98;7.60;;;11.60;99.90;;;;;;9197786;19;20329;-72
2022/10/18 04:58:53;;;;;;;61.03;8.77;;;11.50;99.90;;;;;;9192540;19;19919;-71
2022/10/18 05:01:57;;;;;;;48.13;7.43;;;11.40;99.90;;;;;;9194623;19;19918;-72
2022/10/18 05:05:01;;;;;;;61.50;8.35;;;11.60;99.90;;;;;;9194739;19;19922;-72
2022/10/18 05:08:07;;;;;;;46.10;8.20;;;11.50;99.90;;;;;;9195326;19;19923;-72
2022/10/18 05:11:11;;;;;;;136.95;11.32;;;11.40;99.90;;;;;;9192413;19;19919;-72
2022/10/18 05:14:15;;;;;;;40.58;8.02;;;11.80;99.90;;;;;;9198101;19;19919;-72
2022/10/18 05:17:19;;;;;;;79.47;8.98;;;;;;;;;;9196635;19;19930;-72
2022/10/18 05:20:23;;;;;;;68.47;10.30;;;11.50;99.90;;;;;;9195394;19;19995;-71
2022/10/18 05:23:30;;;;;;;37.20;8.07;;;11.90;99.90;;;;;;9194772;19;19911;-72
2022/10/18 05:26:33;;;;;;;68.10;9.63;;;11.60;99.90;;;;;;9194439;19;19929;-72
2022/10/18 05:29:37;;;;;;;44.63;8.13;;;11.40;99.90;;;;;;9197884;19;20249;-72
2022/10/18 05:32:41;;;;;;;77.95;8.80;;;11.60;99.90;;;;;;9195978;19;19989;-71
2022/10/18 05:35:45;;;;;;;121.05;10.02;;;11.40;99.90;;;;;;9193741;19;19918;-73
2022/10/18 05:38:54;;;;;;;71.65;8.10;;;11.30;99.90;;;;;;9192823;19;19917;-73
2022/10/18 05:41:59;;;;;;;89.18;8.23;;;11.10;99.90;;;;;;9191994;19;20352;-72
2022/10/18 05:45:02;;;;;;;58.35;7.63;;;11.80;99.90;;;;;;9193915;19;19923;-72
2022/10/18 05:48:08;;;;;;;80.95;8.00;;;11.50;99.90;;;;;;9196564;19;19922;-73
2022/10/18 05:51:13;;;;;;;93.07;8.43;;;;;;;;;;9190903;19;19918;-73
2022/10/18 05:54:19;;;;;;;94.13;8.43;;;11.20;99.90;;;;;;9192239;19;19953;-72
2022/10/18 05:57:23;;;;;;;78.20;8.30;;;;;;;;;;9193003;19;20336;-73
2022/10/18 06:00:27;;;;;;;86.63;7.95;;;11.20;99.90;;;;;;9194695;19;19982;-73
2022/10/18 06:03:32;;;;;;;105.18;8.35;;;11.00;99.90;;;;;;9193644;19;19926;-74
2022/10/18 06:06:36;;;;;;;113.40;8.85;;;11.40;99.90;;;;;;9193585;19;19929;-73
2022/10/18 06:09:43;;;;;;;62.30;7.13;;;11.40;99.90;;;;;;9194193;19;20000;-69
2022/10/18 06:12:47;;;;;;;56.25;7.60;;;11.00;99.90;;;;;;9190032;19;19926;-69
2022/10/18 06:15:51;;;;;;;116.22;8.45;;;11.30;99.90;;;;;;9195935;19;19921;-70
2022/10/18 06:18:58;;;;;;;107.20;9.02;;;10.90;99.90;;;;;;9201172;19;19925;-71
2022/10/18 06:22:02;;;;;;;76.90;7.60;;;11.30;99.90;;;;;;9200405;19;20337;-72
2022/10/18 06:25:09;;;;;;;67.80;7.00;;;11.50;99.90;;;;;;9201397;19;19945;-74
2022/10/18 06:28:13;;;;;;;92.68;8.50;;;11.10;99.90;;;;;;9199421;19;19978;-71
2022/10/18 06:31:17;;;;;;;69.78;7.22;;;11.30;99.90;;;;;;9202107;19;20280;-72
2022/10/18 06:34:21;;;;;;;95.47;9.15;;;;;;;;;;9200079;19;19919;-72
2022/10/18 06:37:25;;;;;;;63.10;7.15;;;10.70;99.90;;;;;;9196768;19;19919;-72
2022/10/18 06:40:36;;;;;;;52.50;6.43;;;11.30;99.90;;;;;;9198148;19;19918;-71
2022/10/18 06:43:40;;;;;;;43.63;6.85;;;;;;;;;;9200656;19;19947;-71
2022/10/18 06:46:45;;;;;;;62.30;6.93;;;10.60;99.90;;;;;;9202415;19;20260;-71
2022/10/18 06:49:49;;;;;;;54.30;7.47;;;10.80;99.90;;;;;;9196899;19;19922;-71
2022/10/18 06:52:54;;;;;;;97.13;8.77;;;11.00;99.90;;;;;;9201356;19;19918;-72
2022/10/18 06:56:05;;;;;;;113.68;8.25;;;11.30;99.90;;;;;;9200459;19;20341;-71
2022/10/18 06:59:08;;;;;;;78.45;8.10;;;10.60;99.90;;;;;;9194576;19;19929;-72
2022/10/18 07:02:17;;;;;;;92.93;8.02;;;11.00;99.90;;;;;;9197452;19;19919;-72
2022/10/18 07:05:21;;;;;;;62.42;6.93;;;10.60;99.90;;;;;;9200375;19;19953;-72
2022/10/18 07:08:25;;;;;;;111.38;9.20;;;10.70;99.90;;;;;;9196374;19;19981;-72
2022/10/18 07:11:32;;;;;;;51.03;6.07;;;11.50;99.90;;;;;;9196704;19;19929;-72
2022/10/18 07:14:35;;;;;;;52.85;6.30;;;10.70;99.90;;;;;;9196506;19;19921;-72
2022/10/18 07:17:40;;;;;;;98.13;8.85;;;10.70;99.90;;;;;;9196406;19;19911;-71
2022/10/18 07:20:44;;;;;;;73.05;8.07;;;10.60;99.90;;;;;;9196492;19;20269;-72
2022/10/18 07:23:48;;;;;;;42.00;6.28;;;11.00;99.90;;;;;;9197830;19;19918;-72
2022/10/18 07:26:55;;;;;;;21.83;6.00;;;10.50;99.90;;;;;;9199354;19;19942;-72
2022/10/18 07:29:58;;;;;;;26.33;6.18;;;10.70;99.90;;;;;;9197774;19;19986;-72
2022/10/18 07:33:02;;;;;;;32.50;6.78;;;;;;;;;;9197036;19;19919;-72
2022/10/18 07:36:08;;;;;;;25.50;5.68;;;11.50;99.90;;;;;;9202103;19;19953;-71
2022/10/18 07:39:12;;;;;;;17.13;5.63;;;11.60;99.90;;;;;;9193395;19;20325;-72
2022/10/18 07:42:18;;;;;;;32.63;6.18;;;11.00;99.90;;;;;;9195790;19;19922;-72
2022/10/18 07:45:22;;;;;;;;;;;11.30;99.90;;;;;;9196338;19;19921;-72
2022/10/18 07:48:26;;;;;;;;;;;12.30;99.90;;;;;;9197729;19;19919;-72
2022/10/18 07:51:31;;;;;;;22.10;4.35;;;10.90;99.90;;;;;;9195375;19;19911;-72
2022/10/18 07:54:36;;;;;;;13.20;4.90;;;11.70;99.90;;;;;;9194804;19;19930;-72
2022/10/18 07:57:42;;;;;;;30.67;5.13;;;10.90;99.90;;;;;;9200489;19;19938;-73
2022/10/18 08:00:46;;;;;;;38.50;5.82;;;10.70;99.90;;;;;;9196222;19;19978;-72
2022/10/18 08:03:50;;;;;;;27.65;4.50;;;11.40;99.90;;;;;;9198297;19;19922;-71
2022/10/18 08:06:54;;;;;;;12.38;4.10;;;11.40;99.90;;;;;;9194542;19;19953;-71
2022/10/18 08:09:58;;;;;;;20.23;5.88;;;;;;;;;;9190128;19;19977;-72
2022/10/18 08:13:05;;;;;;;17.85;5.07;;;11.30;99.90;;;;;;9198706;19;19981;-72
2022/10/18 08:16:11;;;;;;;18.83;4.72;;;11.40;99.90;;;;;;9197795;19;19929;-72
2022/10/18 08:19:15;;;;;;;15.02;5.03;;;;;;;;;;9193036;19;20292;-72
2022/10/18 08:22:21;;;;;;;11.75;4.45;;;12.00;99.90;;;;;;9194097;19;19925;-72
2022/10/18 08:25:25;;;;;;;9.30;3.75;;;10.30;99.90;;;;;;9193775;19;19918;-72
2022/10/18 08:28:32;;;;;;;8.23;4.20;;;11.30;99.90;;;;;;9195467;19;19974;-72
2022/10/18 08:31:35;;;;;;;12.95;4.30;;;11.50;99.90;;;;;;9193462;19;19922;-72
2022/10/18 08:34:39;;;;;;;14.25;5.05;;;12.10;99.90;;;;;;9195731;19;20344;-72
2022/10/18 08:37:44;;;;;;;19.27;5.03;;;11.40;99.90;;;;;;9195752;19;19996;-72
2022/10/18 08:40:48;;;;;;;12.13;4.65;;;11.20;99.90;;;;;;9194186;19;20341;-72
2022/10/18 08:44:04;;;;;;;9.65;4.60;;;11.40;99.90;;;;;;9197955;19;19970;-72
2022/10/18 08:47:16;;;;;;;9.80;5.22;;;11.90;99.90;;;;;;9195564;19;20361;-72
2022/10/18 08:50:22;;;;;;;8.93;5.07;;;12.00;99.90;;;;;;9193156;19;19915;-72
2022/10/18 08:53:29;;;;;;;;;;;12.00;99.90;;;;;;9195617;19;19918;-72
2022/10/18 08:56:34;;;;;;;13.02;5.78;;;11.50;99.90;;;;;;9196709;19;19996;-71
2022/10/18 08:59:43;;;;;;;14.00;4.43;;;13.00;99.90;;;;;;9191434;19;20263;-72
2022/10/18 09:03:03;;;;;;;12.82;4.57;;;12.30;99.90;;;;;;9192689;19;19978;-72
2022/10/18 09:06:15;;;;;;;8.30;3.63;;;12.10;99.90;;;;;;9198098;19;19921;-72
2022/10/18 09:09:34;;;;;;;8.68;4.35;;;12.40;99.90;;;;;;9192044;19;19915;-72
2022/10/18 09:12:53;;;;;;;13.07;4.00;;;13.10;99.90;;;;;;9194613;19;20337;-72
2022/10/18 09:16:03;;;;;;;12.48;3.92;;;13.10;99.90;;;;;;9191856;19;19974;-71
2022/10/18 09:19:19;;;;;;;10.50;3.55;;;12.80;99.90;;;;;;9190891;19;19919;-72
2022/10/18 09:22:30;;;;;;;9.48;3.33;;;12.30;99.90;;;;;;9193962;19;19982;-72
2022/10/18 09:25:38;;;;;;;9.13;2.97;;;13.00;99.90;;;;;;9191394;19;19914;-72
2022/10/18 09:28:51;;;;;;;8.48;2.95;;;12.50;99.90;;;;;;9192283;19;19917;-72
2022/10/18 09:32:05;;;;;;;7.50;3.20;;;13.00;99.90;;;;;;9191486;19;19921;-72
2022/10/18 09:35:16;;;;;;;10.75;3.22;;;13.70;99.90;;;;;;9197293;19;19922;-72
2022/10/18 09:38:24;;;;;;;9.43;3.30;;;12.80;99.90;;;;;;9191292;19;19964;-72
2022/10/18 09:41:34;;;;;;;9.45;2.97;;;14.00;99.90;;;;;;9191876;19;19931;-72
2022/10/18 09:44:41;;;;;;;7.90;3.00;;;13.20;99.90;;;;;;9191515;19;20430;-72
2022/10/18 09:47:49;;;;;;;4.78;1.88;;;14.10;99.90;;;;;;9191697;19;20309;-72
2022/10/18 09:50:58;;;;;;;9.82;2.35;;;13.00;99.90;;;;;;9191155;19;19957;-75
2022/10/18 09:54:09;;;;;;;8.70;2.45;;;14.00;99.90;;;;;;9197635;19;19925;-70
2022/10/18 09:57:18;;;;;;;6.18;2.05;;;13.90;99.90;;;;;;9201477;19;19985;-72
2022/10/18 10:00:27;;;;;;;10.63;2.33;;;13.90;99.90;;;;;;9196587;19;20798;-72
2022/10/18 10:03:34;;;;;;;5.00;1.95;;;14.00;99.90;;;;;;9199759;19;19923;-71
2022/10/18 10:06:40;;;;;;;12.23;2.72;;;13.60;99.90;;;;;;9202622;19;19915;-71
2022/10/18 10:09:46;;;;;;;;;;;13.90;99.90;;;;;;9203467;19;19918;-72
2022/10/18 10:13:03;;;;;;;7.40;2.17;;;14.40;99.90;;;;;;9195306;19;19918;-71
2022/10/18 10:16:08;;;;;;;13.18;1.58;;;15.00;99.90;;;;;;9202806;19;20348;-69
2022/10/18 10:19:21;;;;;;;7.43;1.58;;;14.30;99.90;;;;;;9200060;19;20308;-70
2022/10/18 10:22:30;;;;;;;6.70;1.70;;;14.80;99.90;;;;;;9197233;19;19925;-70
2022/10/18 10:25:36;;;;;;;8.18;1.40;;;15.00;99.90;;;;;;9197282;19;20375;-70
2022/10/18 10:28:47;;;;;;;8.13;1.27;;;13.70;99.90;;;;;;9198392;19;19924;-70
2022/10/18 10:32:04;;;;;;;9.25;1.42;;;15.10;99.90;;;;;;9201711;19;19922;-71
2022/10/18 10:35:22;;;;;;;6.70;1.00;;;14.40;99.90;;;;;;9197938;19;19923;-70
2022/10/18 10:38:28;;;;;;;9.13;1.48;;;15.30;99.90;;;;;;9200727;19;19990;-69
2022/10/18 10:41:32;;;;;;;6.75;1.88;;;14.40;99.90;;;;;;9201099;19;19987;-70
2022/10/18 10:44:38;;;;;;;8.15;1.38;;;15.80;99.90;;;;;;9197225;19;19929;-70
2022/10/18 10:47:42;;;;;;;7.18;1.20;;;16.00;99.90;;;;;;9202592;19;19990;-70
2022/10/18 10:51:01;;;;;;;6.13;1.20;;;15.10;99.90;;;;;;9193746;19;19918;-70
2022/10/18 10:54:10;;;;;;;6.88;1.40;;;16.10;99.90;;;;;;9197789;19;19922;-70
2022/10/18 10:57:24;;;;;;;7.72;1.20;;;15.20;99.90;;;;;;9202084;19;19914;-69
2022/10/18 11:00:39;;;;;;;7.20;1.77;;;16.40;99.90;;;;;;9195149;19;20334;-70
2022/10/18 11:03:48;;;;;;;7.85;1.20;;;16.40;99.90;;;;;;9200650;19;19953;-70
2022/10/18 11:07:02;;;;;;;6.88;1.00;;;16.70;99.90;;;;;;9200937;19;19922;-71
2022/10/18 11:10:09;;;;;;;5.38;1.55;;;15.00;99.90;;;;;;9199575;19;20357;-71
2022/10/18 11:13:25;;;;;;;6.10;0.75;;;16.70;99.90;;;;;;9197037;19;20333;-71
2022/10/18 11:16:34;;;;;;;7.03;1.00;;;15.60;99.90;;;;;;9200739;19;19914;-71
2022/10/18 11:19:44;;;;;;;10.80;1.52;;;17.40;99.90;;;;;;9194842;19;19978;-71
2022/10/18 11:23:01;;;;;;;7.20;1.00;;;17.30;99.90;;;;;;9197885;19;19961;-70
2022/10/18 11:26:29;;;;;;;10.00;1.38;;;16.30;99.90;;;;;;9195790;19;19978;-72
2022/10/18 11:29:46;;;;;;;6.50;1.45;;;16.40;99.90;;;;;;9195619;19;19982;-71
2022/10/18 11:32:59;;;;;;;5.18;1.05;;;16.10;99.90;;;;;;9196427;19;19923;-71
2022/10/18 11:36:10;;;;;;;5.90;0.82;;;16.30;99.90;;;;;;9198297;19;19926;-71
2022/10/18 11:39:28;;;;;;;4.50;1.00;;;15.70;99.90;;;;;;9197994;19;19917;-71
2022/10/18 11:42:39;;;;;;;6.93;0.95;;;16.70;99.90;;;;;;9196035;19;19923;-71
2022/10/18 11:46:12;;;;;;;8.40;1.65;;;16.60;99.90;;;;;;9197960;19;19926;-71
2022/10/18 11:49:28;;;;;;;8.27;1.02;;;15.20;99.90;;;;;;9198045;19;19926;-71
2022/10/18 11:52:43;;;;;;;7.65;1.13;;;16.20;99.90;;;;;;9198367;19;20268;-71
2022/10/18 11:56:04;;;;;;;8.75;1.13;;;15.10;99.90;;;;;;9195353;19;19921;-71
2022/10/18 11:59:29;;;;;;;8.10;1.00;;;14.80;99.90;;;;;;9198124;19;20260;-71
2022/10/18 12:02:51;;;;;;;7.05;0.93;;;14.90;99.90;;;;;;9198448;19;19914;-71
2022/10/18 12:05:59;;;;;;;9.07;1.75;;;15.30;99.90;;;;;;9197754;19;19911;-71
2022/10/18 12:09:06;;;;;;;6.18;1.02;;;15.80;99.90;;;;;;9200398;19;19926;-71
2022/10/18 12:12:19;;;;;;;5.65;1.10;;;17.00;99.90;;;;;;9188548;19;19966;-72
2022/10/18 12:15:26;;;;;;;5.18;1.00;;;17.50;99.90;;;;;;9197075;19;19928;-71
2022/10/18 12:18:31;;;;;;;4.97;1.20;;;16.40;99.90;;;;;;9195174;19;19923;-71
2022/10/18 12:21:36;;;;;;;9.20;2.35;;;16.40;99.90;;;;;;9198364;19;19925;-71
2022/10/18 12:24:40;;;;;;;6.93;1.35;;;15.50;99.90;;;;;;9193817;19;19939;-71
2022/10/18 12:28:00;;;;;;;4.00;0.80;;;15.60;99.90;;;;;;9193401;19;20655;-71
2022/10/18 12:31:14;;;;;;;5.07;0.93;;;15.50;99.90;;;;;;9198513;19;20337;-71
2022/10/18 12:34:31;;;;;;;6.28;0.90;;;16.90;99.90;;;;;;9198003;19;20269;-71
2022/10/18 12:37:56;;;;;;;8.50;2.00;;;17.50;99.90;;;;;;9197232;19;19981;-71
2022/10/18 12:41:01;;;;;;;6.20;0.90;;;17.00;99.90;;;;;;9191706;19;19934;-71
2022/10/18 12:44:18;;;;;;;6.00;0.98;;;17.10;99.90;;;;;;9191329;19;19914;-71
2022/10/18 12:47:26;;;;;;;8.32;1.17;;;16.70;99.90;;;;;;9195218;19;19949;-71
2022/10/18 12:50:34;;;;;;;6.95;1.15;;;18.50;99.90;;;;;;9193503;19;19925;-72
2022/10/18 12:53:38;;;;;;;5.53;0.93;;;17.60;99.90;;;;;;9194120;19;20322;-71
2022/10/18 12:56:45;;;;;;;5.68;1.15;;;17.50;99.90;;;;;;9193469;19;19947;-71
2022/10/18 12:59:52;;;;;;;9.73;1.55;;;16.20;99.90;;;;;;9193732;19;19927;-71
2022/10/18 13:03:30;;;;;;;4.88;0.90;;;16.90;99.90;;;;;;9195628;19;19942;-71
2022/10/18 13:07:19;;;;;;;7.70;1.27;;;16.20;99.90;;;;;;9192478;19;19921;-72
2022/10/18 13:10:40;;;;;;;12.18;2.13;;;16.60;99.90;;;;;;9189514;19;20354;-71
2022/10/18 13:13:59;;;;;;;7.75;1.77;;;15.80;99.90;;;;;;9193351;19;19915;-72
2022/10/18 13:17:16;;;;;;;3.13;1.30;;;16.40;99.90;;;;;;9194301;19;19950;-72
2022/10/18 13:20:27;;;;;;;3.72;0.95;;;16.10;99.90;;;;;;9192174;19;19938;-72
2022/10/18 13:23:44;;;;;;;3.25;1.05;;;16.90;99.90;;;;;;9195338;19;19978;-72
2022/10/18 13:26:58;;;;;;;7.18;1.20;;;18.10;99.90;;;;;;9194342;19;20340;-70
2022/10/18 13:30:22;;;;;;;4.88;0.95;;;18.20;99.90;;;;;;9193232;19;19950;-71
2022/10/18 13:33:34;;;;;;;7.55;1.05;;;17.60;99.90;;;;;;9195281;19;19931;-71
2022/10/18 13:36:38;;;;;;;9.70;1.83;;;17.20;99.90;;;;;;9193704;19;20006;-71
2022/10/18 13:39:42;;;;;;;4.00;0.75;;;17.30;99.90;;;;;;9193005;19;19914;-71
2022/10/18 13:42:46;;;;;;;8.50;1.00;;;17.10;99.90;;;;;;9194216;19;19918;-71
2022/10/18 13:45:57;;;;;;;3.63;0.98;;;18.00;99.90;;;;;;9195901;19;20015;-70
2022/10/18 13:49:24;;;;;;;11.88;1.73;;;16.90;99.90;;;;;;9197315;19;20456;-71
2022/10/18 13:52:33;;;;;;;7.22;1.00;;;17.30;99.90;;;;;;9191325;19;19926;-70
2022/10/18 13:55:55;;;;;;;6.95;1.00;;;18.40;99.90;;;;;;9189589;19;19915;-71
2022/10/18 13:59:17;;;;;;;7.85;1.35;;;17.00;99.90;;;;;;9194700;19;19949;-72
2022/10/18 14:02:46;;;;;;;4.35;1.20;;;18.60;99.90;;;;;;9195124;19;19922;-72
2022/10/18 14:06:00;;;;;;;10.70;1.27;;;17.20;99.90;;;;;;9191509;19;19974;-73
2022/10/18 14:09:10;;;;;;;8.32;1.40;;;17.90;99.90;;;;;;9192611;19;19922;-72
2022/10/18 14:12:24;;;;;;;7.88;1.50;;;17.50;99.90;;;;;;9188206;19;19926;-72
2022/10/18 14:15:35;;;;;;;6.90;1.55;;;19.10;99.90;;;;;;9193003;19;19923;-71
2022/10/18 14:18:44;;;;;;;10.05;2.10;;;18.30;99.90;;;;;;9194287;19;20337;-71
2022/10/18 14:21:59;;;;;;;4.05;1.10;;;18.50;99.90;;;;;;9190980;19;19918;-71
2022/10/18 14:25:04;;;;;;;5.35;1.77;;;17.50;99.90;;;;;;9189822;19;20355;-71
2022/10/18 14:28:14;;;;;;;5.35;1.33;;;17.30;99.90;;;;;;9190290;19;19915;-71
2022/10/18 14:31:21;;;;;;;8.90;1.48;;;16.70;99.90;;;;;;9184779;19;19956;-72
2022/10/18 14:34:25;;;;;;;6.75;1.20;;;16.50;99.90;;;;;;9194343;19;19922;-71
2022/10/18 14:37:36;;;;;;;6.25;1.00;;;16.20;99.90;;;;;;9191503;19;19910;-71
2022/10/18 14:40:41;;;;;;;7.43;0.90;;;17.70;99.90;;;;;;9199376;19;19915;-72
2022/10/18 14:43:49;;;;;;;5.57;1.13;;;16.20;99.90;;;;;;9198712;19;19919;-73
2022/10/18 14:46:59;;;;;;;7.82;1.25;;;15.70;99.90;;;;;;9200527;19;19926;-71
2022/10/18 14:50:03;;;;;;;4.15;1.20;;;15.80;99.90;;;;;;9189744;19;20261;-72
2022/10/18 14:53:19;;;;;;;8.02;1.45;;;15.80;99.90;;;;;;9187907;19;19914;-72
2022/10/18 14:56:29;;;;;;;5.95;0.90;;;16.70;99.90;;;;;;9198598;19;20400;-72
2022/10/18 14:59:38;;;;;;;6.15;1.75;;;16.10;99.90;;;;;;9197997;19;20320;-72
2022/10/18 15:02:42;;;;;;;12.48;5.03;;;;;;;;;;9200126;19;20569;-72
2022/10/18 15:05:58;;;;;;;4.45;1.55;;;17.40;99.90;;;;;;9201913;19;19919;-72
2022/10/18 15:09:07;;;;;;;7.90;1.33;;;17.00;99.90;;;;;;9199709;19;19918;-72
2022/10/18 15:12:15;;;;;;;7.63;1.70;;;17.30;99.90;;;;;;9199329;19;19925;-70
2022/10/18 15:15:22;;;;;;;5.68;1.33;;;17.80;99.90;;;;;;9181504;19;19962;-69
2022/10/18 15:18:28;;;;;;;6.53;1.08;;;16.60;99.90;;;;;;9186598;19;20329;-73
2022/10/18 15:21:33;;;;;;;9.13;1.15;;;16.50;99.90;;;;;;9197762;19;19981;-74
2022/10/18 15:24:41;;;;;;;7.78;1.65;;;16.10;99.90;;;;;;9193190;19;20005;-73
2022/10/18 15:27:48;;;;;;;7.57;1.40;;;16.00;99.90;;;;;;9198056;19;19926;-72
2022/10/18 15:30:52;;;;;;;8.60;1.20;;;16.20;99.90;;;;;;9196235;19;19978;-71
2022/10/18 15:34:09;;;;;;;9.77;1.35;;;16.20;99.90;;;;;;9189141;19;19949;-72
2022/10/18 15:37:19;;;;;;;9.65;1.20;;;16.10;99.90;;;;;;9196487;19;19947;-75
2022/10/18 15:40:40;;;;;;;6.13;1.40;;;15.90;99.90;;;;;;9196177;19;19926;-74
2022/10/18 15:43:44;;;;;;;5.88;1.00;;;15.30;99.90;;;;;;9196640;19;19952;-74
2022/10/18 15:46:51;;;;;;;5.07;0.82;;;16.10;99.90;;;;;;9196040;19;19947;-73
2022/10/18 15:49:57;;;;;;;9.05;1.40;;;15.50;99.90;;;;;;9198653;19;19918;-73
2022/10/18 15:53:25;;;;;;;5.63;1.52;;;15.10;99.90;;;;;;9196613;19;19929;-73
2022/10/18 15:56:34;;;;;;;8.50;1.42;;;15.30;99.90;;;;;;9192840;19;19931;-70
2022/10/18 15:59:50;;;;;;;4.63;1.17;;;15.00;99.90;;;;;;9195108;19;19937;-73
2022/10/18 16:02:54;;;;;;;4.95;1.13;;;14.20;99.90;;;;;;9199233;19;19964;-71
2022/10/18 16:06:01;;;;;;;5.90;1.85;;;14.60;99.90;;;;;;9201708;19;19925;-70
2022/10/18 16:09:06;;;;;;;7.60;2.03;;;14.70;99.90;;;;;;9201442;19;19919;-72
2022/10/18 16:12:12;;;;;;;6.57;1.70;;;14.50;99.90;;;;;;9200814;19;20333;-71
2022/10/18 16:15:16;;;;;;;5.50;1.15;;;15.10;99.90;;;;;;9193561;19;20449;-72
2022/10/18 16:18:21;;;;;;;17.13;2.40;;;14.10;99.90;;;;;;9192611;19;19953;-71
2022/10/18 16:21:30;;;;;;;15.30;2.40;;;14.00;99.90;;;;;;9194445;19;19975;-72